Time;durP1;ratioP1;P1;durP2;ratioP2;P2;SDS_P1;SDS_P2;PMS_P1;PMS_P2;Temp;Humidity;BMP_temperature;BMP_pressure;BME280_temperature;BME280_humidity;BME280_pressure;Samples;Min_cycle;Max_cycle;Signal;HPM_P1;HPM_P2
2020/12/18 00:01:29;;;;;;;45.95;24.27;;;;;;;4.23;68.77;101834.06;1792220;77;21410;-54
2020/12/18 00:03:57;;;;;;;42.58;24.98;;;;;;;4.18;68.90;101832.05;1798076;78;22325;-52
2020/12/18 00:06:34;;;;;;;36.70;22.77;;;;;;;4.11;69.06;101835.75;1744212;80;21257;-53
2020/12/18 00:09:05;;;;;;;51.30;21.82;;;;;;;4.06;69.21;101837.18;1760234;80;21119;-53
2020/12/18 00:11:34;;;;;;;38.45;23.12;;;;;;;4.08;69.10;101833.23;1761150;80;21178;-53
2020/12/18 00:14:01;;;;;;;36.83;22.50;;;;;;;4.16;68.96;101830.41;1772535;80;21644;-53
2020/12/18 00:16:32;;;;;;;38.80;21.07;;;;;;;4.20;68.87;101827.67;1755013;80;23609;-54
2020/12/18 00:18:58;;;;;;;35.68;22.25;;;;;;;4.23;68.84;101829.31;1767657;80;21531;-54
2020/12/18 00:21:25;;;;;;;34.95;21.85;;;;;;;4.17;68.85;101821.67;1751819;81;21223;-53
2020/12/18 00:23:53;;;;;;;46.50;22.95;;;;;;;4.08;68.94;101831.92;1748127;81;21162;-54
2020/12/18 00:26:20;;;;;;;43.85;22.77;;;;;;;4.01;69.21;101830.41;1749548;81;21120;-53
2020/12/18 00:28:48;;;;;;;40.55;22.25;;;;;;;3.96;69.45;101827.94;1748635;81;23366;-54
2020/12/18 00:31:16;;;;;;;42.85;23.52;;;;;;;3.94;69.55;101828.44;1736259;81;21453;-53
2020/12/18 00:33:43;;;;;;;46.00;26.07;;;;;;;3.92;69.59;101826.33;1742775;81;21594;-54
2020/12/18 00:36:11;;;;;;;38.15;21.77;;;;;;;3.88;69.64;101816.88;1740896;81;21621;-54
2020/12/18 00:38:40;;;;;;;36.28;21.33;;;;;;;3.89;69.65;101818.60;1739878;81;21219;-54
2020/12/18 00:41:07;;;;;;;33.90;21.12;;;;;;;3.97;69.43;101821.84;1737085;81;22383;-54
2020/12/18 00:43:35;;;;;;;34.78;22.05;;;;;;;4.04;69.33;101822.52;1748389;81;21571;-54
2020/12/18 00:46:04;;;;;;;41.70;20.35;;;;;;;4.04;69.35;101814.23;1748019;81;21124;-53
2020/12/18 00:48:32;;;;;;;32.33;19.60;;;;;;;4.05;69.41;101815.08;1742865;81;21218;-53
2020/12/18 00:51:01;;;;;;;34.63;19.23;;;;;;;4.02;69.45;101810.84;1749753;81;21179;-53
2020/12/18 00:53:29;;;;;;;39.73;20.30;;;;;;;4.00;69.48;101811.77;1742619;81;21206;-53
2020/12/18 00:55:58;;;;;;;32.50;19.73;;;;;;;3.98;69.43;101813.56;1740403;81;21211;-53
2020/12/18 00:58:27;;;;;;;32.75;19.15;;;;;;;3.87;69.48;101810.83;1747020;81;21168;-53
2020/12/18 01:00:54;;;;;;;35.10;18.00;;;;;;;3.78;69.65;101812.84;1745852;81;21846;-53
2020/12/18 01:03:24;;;;;;;34.53;20.27;;;;;;;3.68;69.79;101812.25;1744475;81;21215;-54
2020/12/18 01:05:51;;;;;;;34.98;20.17;;;;;;;3.62;69.90;101808.08;1743888;81;23387;-54
2020/12/18 01:08:19;;;;;;;34.50;19.98;;;;;;;3.69;69.89;101805.70;1746200;81;21142;-53
2020/12/18 01:10:48;;;;;;;28.23;17.73;;;;;;;3.75;69.78;101805.98;1739731;81;21163;-53
2020/12/18 01:13:15;;;;;;;34.05;18.02;;;;;;;3.78;69.75;101805.88;1741048;81;21234;-54
2020/12/18 01:15:45;;;;;;;29.87;16.90;;;;;;;3.77;69.79;101803.34;1759549;81;21194;-53
2020/12/18 01:18:20;;;;;;;34.25;17.48;;;;;;;3.74;69.82;101796.46;1746197;80;21149;-53
2020/12/18 01:20:49;;;;;;;27.98;17.70;;;;;;;3.70;69.87;101796.16;1759924;81;21195;-53
2020/12/18 01:23:17;;;;;;;34.53;17.27;;;;;;;3.66;69.95;101791.92;1754525;81;21188;-53
2020/12/18 01:25:48;;;;;;;23.75;14.05;;;;;;;3.61;70.03;101787.30;1735785;81;21162;-53
2020/12/18 01:28:16;;;;;;;25.08;14.70;;;;;;;3.57;70.11;101786.99;1738445;81;21430;-53
2020/12/18 01:30:43;;;;;;;27.55;15.18;;;;;;;3.57;70.10;101790.44;1739199;81;21828;-53
2020/12/18 01:33:11;;;;;;;25.25;15.75;;;;;;;3.65;70.00;101779.82;1741776;81;21578;-53
2020/12/18 01:35:39;;;;;;;19.30;13.03;;;;;;;3.73;69.84;101783.03;1748277;81;21136;-53
2020/12/18 01:38:06;;;;;;;23.75;13.10;;;;;;;3.74;69.77;101774.79;1739999;81;21708;-53
2020/12/18 01:40:35;;;;;;;24.90;12.73;;;;;;;3.68;69.74;101777.98;1743873;81;21151;-53
2020/12/18 01:43:04;;;;;;;20.48;12.23;;;;;;;3.66;69.81;101782.81;1738245;81;21416;-53
2020/12/18 01:45:33;;;;;;;18.10;11.80;;;;;;;3.62;69.93;101781.20;1743797;81;21228;-53
2020/12/18 01:48:08;;;;;;;21.52;10.98;;;;;;;3.58;69.89;101781.74;1745595;81;21704;-53
2020/12/18 01:50:53;;;;;;;20.77;12.40;;;;;;;3.54;69.91;101780.11;1758538;79;22472;-54
2020/12/18 01:53:24;;;;;;;16.82;11.73;;;;;;;3.45;70.00;101781.69;1739332;82;21105;-54
2020/12/18 02:06:26;;;;;;;19.92;11.20;;;;;;;3.61;69.65;101776.42;1766257;80;24214;-54
2020/12/18 02:08:55;;;;;;;21.40;10.65;;;;;;;3.58;69.63;101781.74;1734870;81;21147;-54
2020/12/18 02:11:45;;;;;;;20.45;11.88;;;;;;;3.68;69.68;101776.67;1866173;74;22749;-53
2020/12/18 02:14:17;;;;;;;19.95;11.80;;;;;;;3.66;69.68;101775.84;1835263;75;21181;-54
2020/12/18 02:16:46;;;;;;;23.95;11.90;;;;;;;3.68;69.73;101782.31;1858220;77;21219;-54
2020/12/18 02:19:16;;;;;;;20.50;11.35;;;;;;;3.70;69.70;101779.23;1756070;78;20999;-54
2020/12/18 02:21:45;;;;;;;22.85;13.65;;;;;;;3.72;69.66;101776.13;1777902;80;21665;-54
2020/12/18 02:24:25;;;;;;;22.60;13.62;;;;;;;3.71;69.51;101778.32;1802154;77;21184;-54
2020/12/18 02:26:56;;;;;;;28.15;13.72;;;;;;;3.66;69.54;101781.50;1788852;78;21129;-54
2020/12/18 02:29:26;;;;;;;21.97;13.05;;;;;;;3.58;69.64;101778.27;1820317;78;21198;-54
2020/12/18 02:31:55;;;;;;;27.50;14.07;;;;;;;3.49;69.71;101777.62;1807888;78;21139;-54
2020/12/18 02:34:34;;;;;;;;;;;;;;;3.47;69.86;101772.92;1868401;74;22051;-55
2020/12/18 02:37:03;;;;;;;23.20;13.32;;;;;;;3.48;69.77;101775.06;1879948;75;20262;-55
2020/12/18 02:39:33;;;;;;;20.88;12.28;;;;;;;3.54;69.73;101773.14;1868028;75;21191;-55
2020/12/18 02:42:03;;;;;;;20.97;13.08;;;;;;;3.62;69.55;101774.70;1865159;75;21592;-55
2020/12/18 02:55:20;;;;;;;24.23;14.63;;;;;;;3.61;69.75;101763.87;1841223;75;22706;-54
2020/12/18 02:58:08;;;;;;;20.37;12.98;;;;;;;3.47;69.83;101759.91;1809408;78;26180;-53
2020/12/18 03:21:50;;;;;;;26.00;15.28;;;;;;;2.92;71.04;101767.91;1848954;76;23157;-53
2020/12/18 03:24:19;;;;;;;28.45;16.50;;;;;;;2.83;71.22;101767.70;1810209;77;21199;-54
2020/12/18 03:27:05;;;;;;;24.92;14.07;;;;;;;2.91;71.15;101769.66;1809080;77;26255;-54
2020/12/18 03:29:35;;;;;;;22.77;14.23;;;;;;;3.10;70.84;101778.28;1806002;77;21662;-54
2020/12/18 03:32:03;;;;;;;26.48;15.18;;;;;;;3.22;70.65;101768.00;1812252;77;21211;-54
2020/12/18 03:34:32;;;;;;;27.58;15.05;;;;;;;3.34;70.59;101770.25;1810799;77;21168;-54
2020/12/18 03:37:25;;;;;;;24.98;14.93;;;;;;;3.49;70.28;101764.61;1873850;74;22705;-54
2020/12/18 03:39:53;;;;;;;26.65;16.60;;;;;;;3.48;70.13;101768.55;1856951;77;21154;-54
2020/12/18 03:42:31;;;;;;;35.90;16.23;;;;;;;3.52;70.09;101762.39;1749646;79;22913;-53
2020/12/18 03:44:59;;;;;;;23.45;15.53;;;;;;;3.52;70.02;101764.98;1725892;82;21073;-54
2020/12/18 03:47:45;;;;;;;30.20;15.72;;;;;;;3.54;69.81;101769.23;1757468;79;22823;-54
2020/12/18 03:50:28;;;;;;;22.73;13.48;;;;;;;3.51;69.77;101771.08;1869201;75;22728;-54
2020/12/18 03:53:00;;;;;;;25.43;14.65;;;;;;;3.46;69.75;101775.14;1787829;78;21155;-54
2020/12/18 03:55:27;;;;;;;22.70;13.68;;;;;;;3.41;69.76;101773.08;1796530;78;21367;-54
2020/12/18 03:58:13;;;;;;;27.82;15.38;;;;;;;3.35;69.74;101768.07;1812726;78;21646;-54
2020/12/18 04:01:11;;;;;;;23.67;15.10;;;;;;;3.43;69.67;101764.81;1829523;76;22765;-54
2020/12/18 04:03:39;;;;;;;28.25;14.53;;;;;;;3.50;69.46;101767.63;1807054;78;21181;-54
2020/12/18 04:06:08;;;;;;;24.07;12.63;;;;;;;3.56;69.34;101760.55;1799362;78;21796;-54
2020/12/18 04:08:36;;;;;;;26.07;12.85;;;;;;;3.57;69.24;101759.20;1796701;78;21135;-55
2020/12/18 04:11:16;;;;;;;21.50;13.30;;;;;;;3.57;69.33;101758.36;1802081;78;21183;-57
2020/12/18 04:14:08;;;;;;;25.57;14.03;;;;;;;3.60;69.42;101760.84;1804114;77;22728;-55
2020/12/18 04:16:54;;;;;;;28.90;16.93;;;;;;;3.59;69.38;101760.00;1841149;76;28433;-55
2020/12/18 04:19:23;;;;;;;25.23;13.48;;;;;;;3.73;69.09;101766.11;1823203;76;21192;-55
2020/12/18 04:21:50;;;;;;;20.30;13.25;;;;;;;3.89;68.48;101760.85;1820659;77;21199;-55
2020/12/18 04:24:28;;;;;;;;;;;;;;;3.84;68.54;101763.20;1807739;79;22111;-55
2020/12/18 04:26:55;;;;;;;23.92;12.85;;;;;;;3.72;68.69;101760.05;1783513;80;20298;-55
2020/12/18 04:29:23;;;;;;;19.77;12.13;;;;;;;3.58;68.86;101760.05;1774567;78;21250;-55
2020/12/18 04:31:51;;;;;;;22.40;12.30;;;;;;;3.58;68.98;101761.34;1766248;79;21068;-56
2020/12/18 04:34:19;;;;;;;22.93;11.97;;;;;;;3.69;68.82;101761.91;1774303;79;21159;-56
2020/12/18 04:37:00;;;;;;;21.10;12.25;;;;;;;3.75;68.68;101760.86;1781422;80;21170;-55
2020/12/18 04:39:30;;;;;;;24.57;12.70;;;;;;;3.75;68.69;101760.43;1781496;80;21128;-55
2020/12/18 04:41:57;;;;;;;22.87;13.15;;;;;;;3.72;68.74;101756.15;1774458;79;21805;-55
2020/12/18 04:44:25;;;;;;;26.73;13.50;;;;;;;3.70;68.80;101758.41;1771675;78;21112;-55
2020/12/18 04:46:55;;;;;;;26.27;14.43;;;;;;;3.67;68.88;101762.40;1768053;79;21159;-55
2020/12/18 04:49:22;;;;;;;21.95;12.73;;;;;;;3.62;68.90;101763.83;1787183;80;21171;-54
2020/12/18 04:51:53;;;;;;;23.45;13.05;;;;;;;3.59;69.00;101759.16;1786355;79;21120;-55
2020/12/18 05:05:20;;;;;;;25.30;13.05;;;;;;;3.18;70.01;101771.13;1754526;75;22187;-54
2020/12/18 05:08:01;;;;;;;21.62;12.82;;;;;;;3.13;70.17;101782.11;1868330;74;23137;-55
2020/12/18 05:10:29;;;;;;;18.98;11.33;;;;;;;3.15;70.08;101781.61;1835396;76;21163;-55
2020/12/18 05:13:05;;;;;;;20.15;12.20;;;;;;;3.28;69.81;101782.15;1814136;77;21638;-55
2020/12/18 05:37:39;;;;;;;17.60;10.18;;;;;;;3.52;69.70;101794.92;1816881;77;22776;-55
2020/12/18 05:40:21;;;;;;;17.95;10.98;;;;;;;3.43;69.72;101797.34;1782202;78;21124;-56
2020/12/18 05:43:07;;;;;;;20.32;12.45;;;;;;;3.40;69.69;101800.02;1783861;78;21373;-56
2020/12/18 05:45:37;;;;;;;21.90;11.75;;;;;;;3.35;69.79;101801.89;1795511;79;21018;-56
2020/12/18 05:48:23;;;;;;;23.42;12.70;;;;;;;3.32;69.82;101801.52;1789936;78;21191;-55
2020/12/18 05:50:52;;;;;;;17.95;9.95;;;;;;;3.31;69.80;101800.25;1783798;78;21240;-56
2020/12/18 05:53:21;;;;;;;20.57;11.12;;;;;;;3.27;69.82;101802.55;1776703;78;21200;-57
2020/12/18 05:55:50;;;;;;;19.02;10.28;;;;;;;3.30;69.83;101794.66;1778758;78;21402;-57
2020/12/18 05:58:44;;;;;;;19.85;10.35;;;;;;;3.46;69.61;101790.75;1827296;76;22786;-56
2020/12/18 06:01:14;;;;;;;18.25;10.75;;;;;;;3.49;69.43;101798.91;1804921;79;21218;-56
2020/12/18 06:04:03;;;;;;;18.90;9.55;;;;;;;3.57;69.49;101790.89;1869999;76;22716;-56
2020/12/18 06:06:31;;;;;;;22.07;10.80;;;;;;;3.58;69.48;101797.78;1814649;77;21064;-56
2020/12/18 06:08:59;;;;;;;19.75;11.83;;;;;;;3.61;69.45;101795.95;1778033;78;21116;-56
2020/12/18 06:11:29;;;;;;;19.52;10.98;;;;;;;3.62;69.35;101796.82;1804211;77;21175;-56
2020/12/18 06:14:08;;;;;;;15.78;9.40;;;;;;;3.62;69.31;101796.36;1781141;78;21189;-56
2020/12/18 06:16:52;;;;;;;15.43;9.78;;;;;;;3.66;69.27;101794.52;1872919;75;22686;-56
2020/12/18 06:19:22;;;;;;;19.12;11.28;;;;;;;3.60;69.09;101795.98;1841806;77;21197;-56
2020/12/18 06:21:56;;;;;;;17.32;9.95;;;;;;;3.51;69.15;101800.58;1778226;79;21232;-57
2020/12/18 06:24:46;;;;;;;19.90;11.15;;;;;;;3.44;69.35;101800.33;1791686;79;22820;-56
2020/12/18 06:27:29;;;;;;;20.00;10.55;;;;;;;3.48;69.30;101811.08;1764747;80;21194;-58
2020/12/18 06:30:09;;;;;;;19.00;10.05;;;;;;;3.58;69.15;101811.67;1765367;80;21382;-57
2020/12/18 06:32:56;;;;;;;14.43;9.53;;;;;;;3.65;68.98;101807.16;1719362;81;21247;-57
2020/12/18 06:35:34;;;;;;;20.70;11.60;;;;;;;3.66;68.90;101810.14;1718147;81;21205;-57
2020/12/18 06:49:01;;;;;;;20.80;11.73;;;;;;;3.44;69.60;101819.00;1812642;77;22738;-55
2020/12/18 06:51:47;;;;;;;22.42;11.18;;;;;;;3.32;69.71;101830.59;1789849;78;21246;-55
2020/12/18 06:54:16;;;;;;;15.95;11.00;;;;;;;3.26;69.82;101823.81;1787902;78;21879;-55
2020/12/18 06:56:46;;;;;;;17.62;10.28;;;;;;;3.25;69.91;101829.05;1788607;78;21159;-56
2020/12/18 06:59:28;;;;;;;22.65;11.18;;;;;;;3.32;69.84;101835.80;1790065;78;21162;-55
2020/12/18 07:01:56;;;;;;;16.15;10.15;;;;;;;3.44;69.58;101831.55;1785189;78;21195;-56
2020/12/18 07:04:24;;;;;;;18.80;10.80;;;;;;;3.51;69.41;101831.81;1779496;78;21222;-57
2020/12/18 07:06:53;;;;;;;21.00;12.68;;;;;;;3.59;69.33;101826.37;1782525;78;21372;-56
2020/12/18 07:09:20;;;;;;;20.88;11.63;;;;;;;3.59;69.31;101828.14;1786194;78;21932;-56
2020/12/18 07:11:48;;;;;;;16.02;10.90;;;;;;;3.59;69.41;101830.28;1788391;79;21589;-56
2020/12/18 07:14:27;;;;;;;23.67;12.47;;;;;;;3.63;69.57;101821.94;1874623;75;22682;-57
2020/12/18 07:16:58;;;;;;;20.65;11.12;;;;;;;3.61;69.51;101823.73;1812572;77;21740;-54
2020/12/18 07:19:28;;;;;;;26.17;12.40;;;;;;;3.62;69.53;101827.60;1844387;75;21193;-55
2020/12/18 07:50:21;;;;;;;25.70;15.20;;;;;;;3.10;71.01;101827.70;1749710;80;22867;-56
2020/12/18 07:52:48;;;;;;;24.23;13.43;;;;;;;3.02;71.19;101834.38;1758022;80;21132;-56
2020/12/18 07:55:18;;;;;;;22.00;11.97;;;;;;;3.10;71.10;101833.74;1781527;79;21218;-55
2020/12/18 07:57:54;;;;;;;24.65;12.65;;;;;;;3.31;70.83;101832.77;1826127;76;22714;-56
2020/12/18 08:00:22;;;;;;;25.00;12.30;;;;;;;3.41;70.54;101831.62;1799007;79;21202;-56
2020/12/18 08:02:50;;;;;;;22.50;13.55;;;;;;;3.52;70.29;101832.66;1797497;78;21359;-56
2020/12/18 08:05:26;;;;;;;27.55;12.88;;;;;;;3.61;70.10;101832.84;1802504;78;21659;-57
2020/12/18 08:07:58;;;;;;;18.07;11.63;;;;;;;3.65;70.02;101830.13;1798803;77;21120;-57
2020/12/18 08:10:26;;;;;;;23.25;13.08;;;;;;;3.68;69.99;101833.08;1802519;79;21576;-57
2020/12/18 08:12:55;;;;;;;22.22;13.28;;;;;;;3.70;69.80;101830.84;1794012;78;21140;-56
2020/12/18 08:15:23;;;;;;;23.87;14.20;;;;;;;3.72;69.76;101831.65;1795311;79;21195;-55
2020/12/18 08:17:52;;;;;;;21.73;12.10;;;;;;;3.72;69.53;101829.50;1803229;78;21152;-54
2020/12/18 08:20:20;;;;;;;19.10;11.68;;;;;;;3.69;69.43;101829.59;1802772;78;21207;-56
2020/12/18 08:22:48;;;;;;;23.57;13.70;;;;;;;3.64;69.28;101837.97;1749430;79;21560;-56
2020/12/18 08:25:17;;;;;;;25.12;12.98;;;;;;;3.57;69.39;101830.78;1812036;79;21148;-56
2020/12/18 08:27:53;;;;;;;20.97;12.18;;;;;;;3.60;69.19;101832.00;1806524;78;22629;-55
2020/12/18 08:30:23;;;;;;;20.62;12.88;;;;;;;3.68;68.93;101834.38;1798488;79;21678;-55
2020/12/18 08:32:55;;;;;;;22.67;12.65;;;;;;;3.73;68.78;101833.80;1752350;78;21194;-55
2020/12/18 08:35:25;;;;;;;26.05;12.82;;;;;;;3.74;68.56;101832.06;1797552;79;21113;-54
2020/12/18 08:37:53;;;;;;;22.07;12.15;;;;;;;3.68;68.50;101831.77;1796475;79;21155;-60
2020/12/18 08:40:24;;;;;;;19.32;12.25;;;;;;;3.61;68.58;101826.34;1792925;77;21465;-61
2020/12/18 08:43:01;;;;;;;24.95;12.20;;;;;;;3.57;68.70;101833.84;1800218;78;21090;-65
2020/12/18 08:45:31;;;;;;;14.03;8.65;;;;;;;3.52;68.90;101826.99;1799091;79;21195;-63
2020/12/18 08:48:02;;;;;;;19.35;10.85;;;;;;;3.54;68.78;101823.05;1796281;78;21133;-63
2020/12/18 08:50:31;;;;;;;20.95;10.72;;;;;;;3.50;68.79;101811.03;1802960;79;21183;-63
2020/12/18 08:53:13;;;;;;;19.07;9.73;;;;;;;3.51;69.08;101814.90;1792284;77;21179;-63
2020/12/18 08:55:42;;;;;;;16.77;10.05;;;;;;;3.65;69.20;101814.50;1791941;78;21108;-62
2020/12/18 08:58:11;;;;;;;18.60;10.32;;;;;;;3.81;68.83;101817.51;1812169;78;21187;-63
2020/12/18 09:00:39;;;;;;;16.50;10.03;;;;;;;3.90;68.20;101815.95;1821094;78;21623;-62
2020/12/18 09:03:08;;;;;;;19.85;10.78;;;;;;;3.94;67.81;101809.36;1796149;79;21235;-62
2020/12/18 09:05:42;;;;;;;19.87;11.30;;;;;;;3.89;67.76;101803.82;1799708;79;21373;-63
2020/12/18 09:08:19;;;;;;;21.07;11.25;;;;;;;3.85;67.86;101807.85;1797067;79;21666;-64
2020/12/18 09:10:59;;;;;;;13.53;8.48;;;;;;;3.81;68.08;101803.19;1798943;79;21164;-56
2020/12/18 09:13:29;;;;;;;16.15;9.25;;;;;;;3.80;67.79;101800.20;1798325;79;21196;-55
2020/12/18 09:16:06;;;;;;;14.30;8.45;;;;;;;3.72;67.68;101793.05;1800037;79;21191;-55
2020/12/18 09:18:41;;;;;;;15.45;9.13;;;;;;;3.68;67.80;101790.99;1795696;79;22099;-55
2020/12/18 09:21:15;;;;;;;22.45;10.05;;;;;;;3.64;68.03;101785.45;1797407;79;21200;-56
2020/12/18 09:23:46;;;;;;;13.45;7.87;;;;;;;3.65;67.79;101787.62;1791797;77;21216;-54
2020/12/18 09:26:28;;;;;;;14.60;6.92;;;;;;;3.71;67.77;101787.44;1793717;77;21176;-55
2020/12/18 09:28:59;;;;;;;12.75;7.00;;;;;;;3.85;67.28;101784.42;1793743;78;21556;-54
2020/12/18 09:31:29;;;;;;;14.63;6.42;;;;;;;3.96;67.37;101782.81;1800107;78;21357;-54
2020/12/18 09:34:00;;;;;;;12.50;6.95;;;;;;;4.02;67.06;101786.55;1795347;78;21626;-54
2020/12/18 09:36:30;;;;;;;11.78;7.60;;;;;;;4.00;66.97;101781.81;1700314;80;21226;-55
2020/12/18 09:40:36;;;;;;;10.98;6.03;;;;;;;3.97;66.75;101780.17;1790316;77;22684;-55
2020/12/18 09:43:05;;;;;;;9.95;5.42;;;;;;;3.81;66.73;101778.91;1759774;80;21169;-55
2020/12/18 09:45:37;;;;;;;10.30;4.33;;;;;;;3.76;67.01;101767.78;1696480;83;23505;-55
2020/12/18 09:48:06;;;;;;;9.08;4.83;;;;;;;3.74;66.80;101773.48;1754385;80;21212;-55
2020/12/18 09:50:36;;;;;;;13.22;4.53;;;;;;;3.70;66.52;101774.03;1756161;80;21741;-56
2020/12/18 09:53:05;;;;;;;11.48;4.50;;;;;;;3.64;66.71;101772.89;1766538;79;21452;-56
2020/12/18 09:55:35;;;;;;;10.75;6.10;;;;;;;3.60;66.82;101782.55;1761089;79;21200;-55
2020/12/18 09:58:04;;;;;;;11.85;5.12;;;;;;;3.61;67.10;101772.52;1764416;79;22101;-54
2020/12/18 10:00:34;;;;;;;11.57;5.15;;;;;;;3.74;67.32;101770.42;1751021;79;21201;-54
2020/12/18 10:03:04;;;;;;;12.47;5.95;;;;;;;3.84;67.21;101764.05;1764195;79;21206;-55
2020/12/18 10:05:33;;;;;;;11.90;5.53;;;;;;;3.91;67.22;101767.32;1760995;79;21224;-55
2020/12/18 10:08:06;;;;;;;13.53;6.85;;;;;;;3.94;67.19;101765.94;1762649;79;21197;-55
2020/12/18 10:10:33;;;;;;;9.60;5.47;;;;;;;3.96;67.33;101761.52;1756296;79;21380;-53
2020/12/18 10:13:03;;;;;;;10.38;5.55;;;;;;;3.99;67.30;101765.80;1761903;79;21176;-55
2020/12/18 10:15:32;;;;;;;11.55;5.95;;;;;;;3.98;66.87;101759.72;1758769;79;22582;-54
2020/12/18 10:18:02;;;;;;;7.40;3.72;;;;;;;3.93;66.26;101764.67;1757455;79;21172;-55
2020/12/18 10:20:31;;;;;;;9.80;5.00;;;;;;;3.84;66.34;101765.34;1760842;79;21236;-54
2020/12/18 10:23:02;;;;;;;10.23;5.45;;;;;;;3.74;66.23;101758.71;1762307;80;22983;-55
2020/12/18 10:25:31;;;;;;;8.68;4.85;;;;;;;3.67;66.58;101767.61;1755649;80;21643;-56
2020/12/18 10:28:02;;;;;;;11.25;6.10;;;;;;;3.70;66.65;101769.67;1766809;80;21466;-54
2020/12/18 10:41:13;;;;;;;8.13;4.08;;;;;;;3.62;67.21;101743.46;1829893;76;22023;-54
2020/12/18 10:43:50;;;;;;;10.10;4.62;;;;;;;3.58;67.46;101741.83;1799504;79;21176;-54
2020/12/18 10:46:18;;;;;;;;;;;;;;;3.58;67.25;101750.94;1802526;79;21179;-54
2020/12/18 10:48:49;;;;;;;7.00;3.25;;;;;;;3.54;67.11;101747.58;1801456;79;20310;-55
2020/12/18 10:51:18;;;;;;;5.40;2.80;;;;;;;3.42;67.17;101746.17;1791013;79;21196;-54
2020/12/18 10:53:47;;;;;;;7.10;3.35;;;;;;;3.46;67.15;101746.52;1802635;79;21650;-55
2020/12/18 10:56:16;;;;;;;6.92;4.15;;;;;;;3.57;66.91;101737.54;1795778;79;21152;-55
2020/12/18 10:58:45;;;;;;;9.13;4.50;;;;;;;3.64;66.82;101741.20;1800452;78;21182;-55
2020/12/18 11:01:18;;;;;;;8.48;4.70;;;;;;;3.66;67.28;101739.86;1798338;79;21217;-56
2020/12/18 11:03:47;;;;;;;7.33;3.80;;;;;;;3.68;67.23;101739.36;1742582;80;21131;-54
2020/12/18 11:06:17;;;;;;;8.98;4.67;;;;;;;3.68;66.56;101738.05;1760373;80;21195;-55
2020/12/18 11:08:46;;;;;;;9.93;5.03;;;;;;;3.62;66.28;101739.09;1742022;80;21192;-54
2020/12/18 11:11:16;;;;;;;7.85;5.12;;;;;;;3.58;66.49;101730.12;1744817;81;22563;-55
2020/12/18 11:13:45;;;;;;;7.80;4.25;;;;;;;3.58;66.87;101732.72;1800097;79;21565;-54
2020/12/18 11:16:16;;;;;;;12.23;5.92;;;;;;;3.57;66.93;101730.57;1799798;78;21122;-54
2020/12/18 11:18:47;;;;;;;9.73;5.22;;;;;;;3.57;67.07;101730.57;1798243;79;21702;-55
2020/12/18 11:21:16;;;;;;;9.73;5.40;;;;;;;3.64;66.87;101732.55;1797998;79;21630;-55
2020/12/18 11:23:46;;;;;;;8.83;4.75;;;;;;;3.73;66.66;101725.75;1800483;77;21261;-54
2020/12/18 11:26:15;;;;;;;10.70;5.75;;;;;;;3.83;66.34;101735.02;1801310;77;21116;-54
2020/12/18 11:28:45;;;;;;;11.40;5.70;;;;;;;3.85;66.36;101735.81;1800629;79;21192;-54
2020/12/18 11:31:15;;;;;;;12.25;6.62;;;;;;;3.84;66.44;101733.26;1800733;77;21293;-55
2020/12/18 11:33:46;;;;;;;10.82;5.72;;;;;;;3.81;66.37;101730.28;1795969;77;21616;-55
2020/12/18 11:36:16;;;;;;;12.15;6.67;;;;;;;3.78;66.58;101727.77;1790660;79;21355;-54
2020/12/18 11:38:45;;;;;;;12.47;7.00;;;;;;;3.78;66.48;101731.67;1740060;80;21247;-54
2020/12/18 11:41:20;;;;;;;11.55;6.25;;;;;;;3.75;66.65;101729.19;1738627;81;21199;-56
2020/12/18 11:43:48;;;;;;;14.83;6.53;;;;;;;3.74;66.67;101726.17;1796005;79;21145;-55
2020/12/18 11:46:19;;;;;;;11.35;7.05;;;;;;;3.71;66.91;101732.77;1802754;79;22545;-55
2020/12/18 11:48:46;;;;;;;13.65;7.85;;;;;;;3.74;67.03;101731.38;1799625;79;21433;-55
2020/12/18 11:51:14;;;;;;;12.13;7.60;;;;;;;3.85;66.92;101735.81;1789336;77;21935;-54
2020/12/18 11:53:42;;;;;;;12.10;7.15;;;;;;;3.90;66.70;101731.32;1797700;79;21154;-56
2020/12/18 11:56:11;;;;;;;12.95;7.87;;;;;;;3.89;66.97;101730.06;1800100;79;21518;-56
2020/12/18 11:58:39;;;;;;;16.07;8.23;;;;;;;3.87;66.95;101726.66;1792067;79;21563;-57
2020/12/18 12:01:06;;;;;;;20.27;9.33;;;;;;;3.82;67.08;101724.65;1803331;79;21251;-55
2020/12/18 12:03:34;;;;;;;13.80;7.47;;;;;;;3.76;67.30;101719.61;1795961;79;21187;-55
2020/12/18 12:06:02;;;;;;;16.00;8.30;;;;;;;3.77;67.60;101716.97;1800946;77;21193;-55
2020/12/18 12:08:30;;;;;;;14.18;8.03;;;;;;;3.79;67.59;101719.53;1797389;79;21160;-55
2020/12/18 12:10:59;;;;;;;13.70;7.72;;;;;;;3.75;67.48;101724.41;1798216;79;22281;-56
2020/12/18 12:13:27;;;;;;;17.75;8.43;;;;;;;3.73;67.65;101720.55;1793219;79;21408;-54
2020/12/18 12:15:55;;;;;;;16.87;8.55;;;;;;;3.78;67.68;101716.52;1803429;77;21222;-54
2020/12/18 12:18:23;;;;;;;12.53;8.08;;;;;;;3.92;67.57;101719.56;1803507;77;21200;-54
2020/12/18 12:20:51;;;;;;;12.55;7.33;;;;;;;4.03;67.42;101717.45;1799173;79;21422;-55
2020/12/18 12:23:18;;;;;;;13.43;8.05;;;;;;;4.11;67.16;101725.50;1797517;79;21187;-54
2020/12/18 12:25:46;;;;;;;12.45;7.25;;;;;;;4.10;66.96;101719.41;1739472;80;22451;-55
2020/12/18 12:28:13;;;;;;;14.95;7.25;;;;;;;4.11;67.13;101713.77;1741279;81;21191;-54
2020/12/18 12:30:40;;;;;;;11.08;7.05;;;;;;;4.11;67.08;101714.61;1795869;79;21219;-54
2020/12/18 12:33:08;;;;;;;13.62;7.45;;;;;;;4.10;67.17;101714.20;1799360;79;21184;-55
2020/12/18 12:35:35;;;;;;;13.30;6.78;;;;;;;4.10;67.18;101712.90;1799116;79;21156;-54
2020/12/18 12:38:06;;;;;;;13.95;6.33;;;;;;;4.08;67.01;101717.31;1748611;77;21206;-54
2020/12/18 12:40:33;;;;;;;11.50;6.72;;;;;;;4.04;66.94;101713.12;1796671;79;21168;-56
2020/12/18 12:43:00;;;;;;;14.38;7.53;;;;;;;3.99;66.97;101713.71;1753656;81;21202;-56
2020/12/18 12:45:28;;;;;;;16.23;7.40;;;;;;;3.93;66.93;101713.89;1779336;80;21183;-54
2020/12/18 12:47:55;;;;;;;12.70;7.85;;;;;;;3.94;66.89;101711.70;1766634;80;21162;-54
2020/12/18 12:50:22;;;;;;;12.50;6.70;;;;;;;4.03;66.72;101714.84;1801605;79;22263;-55
2020/12/18 12:52:50;;;;;;;12.07;6.85;;;;;;;4.08;66.38;101713.41;1753116;81;21780;-54
2020/12/18 12:55:18;;;;;;;12.15;7.42;;;;;;;4.10;66.21;101710.30;1784038;79;21105;-53
2020/12/18 12:57:45;;;;;;;12.10;6.62;;;;;;;4.09;66.30;101712.52;1774300;80;21201;-51
2020/12/18 13:00:13;;;;;;;14.55;7.45;;;;;;;4.05;66.35;101711.77;1797303;79;21163;-54
2020/12/18 13:02:40;;;;;;;13.40;7.53;;;;;;;4.02;66.36;101711.86;1775158;78;21595;-55
2020/12/18 13:05:08;;;;;;;15.38;8.25;;;;;;;3.98;66.29;101717.20;1771012;80;21174;-55
2020/12/18 13:07:36;;;;;;;12.88;7.37;;;;;;;3.93;66.37;101713.89;1773181;78;21339;-55
2020/12/18 13:10:03;;;;;;;16.40;8.13;;;;;;;3.88;66.42;101713.59;1773790;78;21204;-55
2020/12/18 13:12:31;;;;;;;14.68;7.72;;;;;;;3.83;66.43;101719.39;1754696;80;21154;-72
2020/12/18 13:14:59;;;;;;;14.95;7.37;;;;;;;3.78;66.73;101713.45;1780467;79;22281;-69
2020/12/18 13:17:26;;;;;;;13.35;7.33;;;;;;;3.73;66.98;101715.34;1783786;80;21546;-64
2020/12/18 13:19:56;;;;;;;15.83;7.50;;;;;;;3.75;66.93;101712.69;1769303;80;21166;-63
2020/12/18 13:22:25;;;;;;;13.15;6.70;;;;;;;3.82;66.89;101715.08;1784521;79;21650;-56
2020/12/18 13:24:52;;;;;;;15.15;8.10;;;;;;;3.88;66.73;101717.50;1762751;80;21570;-56
2020/12/18 13:27:20;;;;;;;17.42;9.68;;;;;;;3.91;66.62;101722.59;1799412;78;21959;-65
2020/12/18 13:29:47;;;;;;;14.47;9.43;;;;;;;3.85;66.69;101718.02;1750930;80;21205;-64
2020/12/18 13:32:15;;;;;;;16.55;9.53;;;;;;;3.82;66.95;101718.14;1776216;79;21186;-64
2020/12/18 13:34:42;;;;;;;19.75;10.15;;;;;;;3.82;67.12;101711.17;1791229;79;22318;-64
2020/12/18 13:37:10;;;;;;;17.85;10.18;;;;;;;3.81;67.15;101712.05;1795158;78;21155;-64
2020/12/18 13:39:38;;;;;;;19.50;11.45;;;;;;;3.80;67.10;101716.88;1753252;81;21389;-63
2020/12/18 13:42:05;;;;;;;18.32;11.00;;;;;;;3.78;67.13;101710.00;1785063;79;21163;-63
2020/12/18 13:44:33;;;;;;;15.08;10.72;;;;;;;3.71;67.18;101710.17;1784876;79;21211;-64
2020/12/18 13:47:00;;;;;;;20.00;9.80;;;;;;;3.65;67.40;101705.17;1784384;79;21665;-65